Observation data for Morton on 11/19/2019      Previous  Date  Next       Current Mesonet Observations  Soil Data  Daily Summary Page  Observations in Plain Language
KMNS 190600Z 17003KT 09/M02 A30 RMK A01 T00921023  RH  045%=      5-min Rain = 0
KMNS 190605Z 17003KT 09/M02 A30 RMK A01 T00941024  RH  044%=      5-min Rain = 0
KMNS 190610Z 15003KT 09/M03 A30 RMK A01 T00881026  RH  045%=      5-min Rain = 0
KMNS 190615Z 15004KT 09/M02 A30 RMK A01 T00871024  RH  046%=      5-min Rain = 0
KMNS 190620Z 15004KT 09/M03 A30 RMK A01 T00881025  RH  045%=      5-min Rain = 0
KMNS 190625Z 15003KT 08/M03 A30 RMK A01 T00801029  RH  047%=      5-min Rain = 0
KMNS 190630Z 15003KT 08/M03 A2999 RMK A01 T00821025  RH  047%=      5-min Rain = 0
KMNS 190635Z 15002KT 09/M02 A30 RMK A01 T00851024  RH  047%=      5-min Rain = 0
KMNS 190640Z 13003KT 09/M02 A30 RMK A01 T00881023  RH  046%=      5-min Rain = 0
KMNS 190645Z 10007KT 08/M03 A2999 RMK A01 T00831025  RH  047%=      5-min Rain = 0
KMNS 190650Z 10010KT 08/M02 A2998 RMK A01 T00771018  RH  051%=      5-min Rain = 0
KMNS 190655Z 10006KT 09/M02 A2998 RMK A01 T00861015  RH  050%=      5-min Rain = 0
KMNS 190700Z 12004KT 09/M02 A2999 RMK A01 T00861018  RH  048%=      5-min Rain = 0
KMNS 190705Z 15003KT 09/M02 A2999 RMK A01 T00891020  RH  047%=      5-min Rain = 0
KMNS 190710Z 17002KT 08/M02 A2999 RMK A01 T00781023  RH  049%=      5-min Rain = 0
KMNS 190715Z 24005KT 07/M03 A2999 RMK A01 T00661026  RH  052%=      5-min Rain = 0
KMNS 190720Z 25008KT 06/M02 A30 RMK A01 T00631021  RH  055%=      5-min Rain = 0
KMNS 190725Z 24007KT 07/M02 A30 RMK A01 T00681020  RH  054%=      5-min Rain = 0
KMNS 190730Z 24006KT 07/M02 A30 RMK A01 T00701020  RH  053%=      5-min Rain = 0
KMNS 190735Z 25005KT 07/M02 A30 RMK A01 T00671020  RH  054%=      5-min Rain = 0
KMNS 190740Z 25005KT 07/M02 A30 RMK A01 T00651019  RH  056%=      5-min Rain = 0
KMNS 190745Z 25006KT 07/M02 A30 RMK A01 T00651018  RH  056%=      5-min Rain = 0
KMNS 190750Z 26006KT 06/M02 A30 RMK A01 T00581019  RH  058%=      5-min Rain = 0
KMNS 190755Z 26006KT 05/M02 A30 RMK A01 T00541018  RH  060%=      5-min Rain = 0
KMNS 190800Z 26005KT 06/M02 A30 RMK A01 T00581015  RH  060%=      5-min Rain = 0
KMNS 190805Z 26005KT 06/M02 A30 RMK A01 T00581015  RH  060%=      5-min Rain = 0
KMNS 190810Z 26004KT 05/M02 A3001 RMK A01 T00531019  RH  060%=      5-min Rain = 0
KMNS 190815Z 27004KT 05/M02 A30 RMK A01 T00481019  RH  062%=      5-min Rain = 0
KMNS 190820Z 27005KT 05/M02 A3001 RMK A01 T00451018  RH  064%=      5-min Rain = 0
KMNS 190825Z 28005KT 04/M02 A30 RMK A01 T00421018  RH  065%=      5-min Rain = 0
KMNS 190830Z 28005KT 04/M02 A30 RMK A01 T00431017  RH  066%=      5-min Rain = 0
KMNS 190835Z 28006KT 04/M02 A3001 RMK A01 T00431017  RH  066%=      5-min Rain = 0
KMNS 190840Z 27005KT 04/M02 A3001 RMK A01 T00371019  RH  067%=      5-min Rain = 0
KMNS 190845Z 27005KT 04/M02 A3001 RMK A01 T00351019  RH  068%=      5-min Rain = 0
KMNS 190850Z 28005KT 03/M02 A30 RMK A01 T00341020  RH  068%=      5-min Rain = 0
KMNS 190855Z 27005KT 03/M02 A30 RMK A01 T00341020  RH  068%=      5-min Rain = 0
KMNS 190900Z 27005KT 03/M02 A30 RMK A01 T00321020  RH  069%=      5-min Rain = 0
KMNS 190905Z 27005KT 03/M02 A30 RMK A01 T00341018  RH  069%=      5-min Rain = 0
KMNS 190910Z 27004KT 04/M02 A30 RMK A01 T00351018  RH  069%=      5-min Rain = 0
KMNS 190915Z 26005KT 03/M02 A30 RMK A01 T00321021  RH  069%=      5-min Rain = 0
KMNS 190920Z 27005KT 03/M02 A30 RMK A01 T00291023  RH  069%=      5-min Rain = 0
KMNS 190925Z 27004KT 03/M02 A2999 RMK A01 T00301020  RH  070%=      5-min Rain = 0
KMNS 190930Z 27004KT 03/M02 A2999 RMK A01 T00311020  RH  070%=      5-min Rain = 0
KMNS 190935Z 26004KT 03/M02 A2999 RMK A01 T00331018  RH  070%=      5-min Rain = 0
KMNS 190940Z 27005KT 03/M02 A2999 RMK A01 T00331020  RH  069%=      5-min Rain = 0
KMNS 190945Z 28004KT 03/M02 A2999 RMK A01 T00311021  RH  070%=      5-min Rain = 0
KMNS 190950Z 28004KT 03/M02 A2999 RMK A01 T00321018  RH  070%=      5-min Rain = 0
KMNS 190955Z 28004KT 03/M02 A2999 RMK A01 T00331019  RH  069%=      5-min Rain = 0
KMNS 191000Z 29004KT 03/M02 A2999 RMK A01 T00341019  RH  069%=      5-min Rain = 0
KMNS 191005Z 29006KT 03/M02 A2999 RMK A01 T00301023  RH  069%=      5-min Rain = 0
KMNS 191010Z 29006KT 03/M02 A2999 RMK A01 T00281022  RH  070%=      5-min Rain = 0
KMNS 191015Z 29005KT 03/M02 A2998 RMK A01 T00271021  RH  071%=      5-min Rain = 0
KMNS 191020Z 29004KT 03/M02 A2998 RMK A01 T00261022  RH  071%=      5-min Rain = 0
KMNS 191025Z 29004KT 03/M02 A2998 RMK A01 T00271023  RH  071%=      5-min Rain = 0
KMNS 191030Z 29004KT 03/M02 A2998 RMK A01 T00251024  RH  070%=      5-min Rain = 0
KMNS 191035Z 29005KT 03/M02 A2998 RMK A01 T00251024  RH  071%=      5-min Rain = 0
KMNS 191040Z 29004KT 03/M02 A2998 RMK A01 T00251023  RH  071%=      5-min Rain = 0
KMNS 191045Z 30004KT 03/M02 A2997 RMK A01 T00261022  RH  071%=      5-min Rain = 0
KMNS 191050Z 29003KT 03/M02 A2997 RMK A01 T00281021  RH  070%=      5-min Rain = 0
KMNS 191055Z 29004KT 03/M02 A2997 RMK A01 T00261023  RH  071%=      5-min Rain = 0
KMNS 191100Z 28005KT 02/M02 A2997 RMK A01 T00231024  RH  071%=      5-min Rain = 0
KMNS 191105Z 29006KT 02/M03 A2997 RMK A01 T00211025  RH  072%=      5-min Rain = 0
KMNS 191110Z 28007KT 02/M02 A2997 RMK A01 T00221023  RH  073%=      5-min Rain = 0
KMNS 191115Z 28005KT 02/M02 A2997 RMK A01 T00241021  RH  072%=      5-min Rain = 0
KMNS 191120Z 29005KT 03/M02 A2997 RMK A01 T00251022  RH  071%=      5-min Rain = 0
KMNS 191125Z 28005KT 03/M02 A2997 RMK A01 T00261023  RH  071%=      5-min Rain = 0
KMNS 191130Z 27004KT 03/M02 A2997 RMK A01 T00271023  RH  070%=      5-min Rain = 0
KMNS 191135Z 27004KT 02/M03 A2997 RMK A01 T00241026  RH  070%=      5-min Rain = 0
KMNS 191140Z 27005KT 02/M03 A2997 RMK A01 T00231027  RH  070%=      5-min Rain = 0
KMNS 191145Z 27004KT 02/M03 A2997 RMK A01 T00191029  RH  071%=      5-min Rain = 0
KMNS 191150Z 27004KT 02/M03 A2997 RMK A01 T00201026  RH  072%=      5-min Rain = 0
KMNS 191155Z 27004KT 02/M02 A2997 RMK A01 T00231024  RH  072%=      5-min Rain = 0
KMNS 191200Z 27003KT 02/M02 A2997 RMK A01 T00241024  RH  071%=      5-min Rain = 0
KMNS 191205Z 27003KT 02/M02 A2997 RMK A01 T00241024  RH  071%=      5-min Rain = 0
KMNS 191210Z 28003KT 02/M03 A2996 RMK A01 T00211026  RH  072%=      5-min Rain = 0
KMNS 191215Z 28003KT 02/M02 A2996 RMK A01 T00241023  RH  072%=      5-min Rain = 0
KMNS 191220Z 29002KT 02/M03 A2996 RMK A01 T00211028  RH  071%=      5-min Rain = 0
KMNS 191225Z 29005KT 02/M03 A2997 RMK A01 T00151032  RH  072%=      5-min Rain = 0
KMNS 191230Z 27004KT 02/M03 A2996 RMK A01 T00171026  RH  074%=      5-min Rain = 0
KMNS 191235Z 28005KT 02/M02 A2996 RMK A01 T00191024  RH  073%=      5-min Rain = 0
KMNS 191240Z 28004KT 02/M03 A2996 RMK A01 T00191025  RH  073%=      5-min Rain = 0
KMNS 191245Z 27003KT 02/M03 A2996 RMK A01 T00201025  RH  073%=      5-min Rain = 0
KMNS 191250Z 28006KT 02/M03 A2996 RMK A01 T00191026  RH  072%=      5-min Rain = 0
KMNS 191255Z 28005KT 02/M03 A2996 RMK A01 T00161027  RH  073%=      5-min Rain = 0
KMNS 191300Z 29005KT 01/M03 A2997 RMK A01 T00141028  RH  074%=      5-min Rain = 0
KMNS 191305Z 27004KT 02/M03 A2996 RMK A01 T00151025  RH  075%=      5-min Rain = 0
KMNS 191310Z 27002KT 02/M02 A2996 RMK A01 T00181024  RH  074%=      5-min Rain = 0
KMNS 191315Z 28003KT 02/M03 A2996 RMK A01 T00161027  RH  074%=      5-min Rain = 0
KMNS 191320Z 28005KT 01/M03 A2996 RMK A01 T00121029  RH  075%=      5-min Rain = 0
KMNS 191325Z 28006KT 01/M03 A2996 RMK A01 T00121028  RH  076%=      5-min Rain = 0
KMNS 191330Z 28005KT 01/M03 A2996 RMK A01 T00141025  RH  076%=      5-min Rain = 0
KMNS 191335Z 29005KT 02/M02 A2997 RMK A01 T00151024  RH  076%=      5-min Rain = 0
KMNS 191340Z 29005KT 02/M02 A2997 RMK A01 T00161023  RH  076%=      5-min Rain = 0
KMNS 191345Z 30004KT 02/M02 A2997 RMK A01 T00161024  RH  075%=      5-min Rain = 0
KMNS 191350Z 30004KT 02/M02 A2997 RMK A01 T00181022  RH  075%=      5-min Rain = 0
KMNS 191355Z 29003KT 03/M02 A2997 RMK A01 T00251018  RH  073%=      5-min Rain = 0
KMNS 191400Z 29002KT 03/M02 A2997 RMK A01 T00301017  RH  072%=      5-min Rain = 0
KMNS 191405Z 29004KT 03/M02 A2997 RMK A01 T00331016  RH  071%=      5-min Rain = 0
KMNS 191410Z 28004KT 04/M02 A2997 RMK A01 T00361015  RH  070%=      5-min Rain = 0
KMNS 191415Z 29004KT 04/M01 A2997 RMK A01 T00401012  RH  069%=      5-min Rain = 0
KMNS 191420Z 29003KT 05/M01 A2997 RMK A01 T00451012  RH  067%=      5-min Rain = 0
KMNS 191425Z 26001KT 05/M01 A2997 RMK A01 T00511010  RH  066%=      5-min Rain = 0
KMNS 191430Z 28001KT 06/M01 A2997 RMK A01 T00581007  RH  064%=      5-min Rain = 0
KMNS 191435Z 26001KT 06/M01 A2997 RMK A01 T00641007  RH  061%=      5-min Rain = 0
KMNS 191440Z 26002KT 07/M01 A2997 RMK A01 T00701008  RH  058%=      5-min Rain = 0
KMNS 191445Z 28003KT 08/M01 A2997 RMK A01 T00751007  RH  057%=      5-min Rain = 0
KMNS 191450Z 27003KT 08/M00 A2997 RMK A01 T00841001  RH  056%=      5-min Rain = 0
KMNS 191455Z 27003KT 09/M00 A2997 RMK A01 T00891003  RH  053%=      5-min Rain = 0
KMNS 191500Z 26003KT 10/M00 A2997 RMK A01 T00961001  RH  051%=      5-min Rain = 0
KMNS 191505Z 27003KT 10/M00 A2997 RMK A01 T01041001  RH  049%=      5-min Rain = 0
KMNS 191510Z 26004KT 11/00 A2997 RMK A01 T01120000  RH  047%=      5-min Rain = 0
KMNS 191515Z 24004KT 12/00 A2998 RMK A01 T01190001  RH  045%=      5-min Rain = 0
KMNS 191520Z 23004KT 13/00 A2997 RMK A01 T01290000  RH  042%=      5-min Rain = 0
KMNS 191525Z 23004KT 14/00 A2997 RMK A01 T013500-0  RH  040%=      5-min Rain = 0
KMNS 191530Z 22003KT 14/M00 A2997 RMK A01 T01421001  RH  038%=      5-min Rain = 0
KMNS 191535Z 20005KT 15/M00 A2997 RMK A01 T01511003  RH  035%=      5-min Rain = 0
KMNS 191540Z 19006KT 16/M01 A2997 RMK A01 T01591005  RH  033%=      5-min Rain = 0
KMNS 191545Z 20008KT 16/M01 A2997 RMK A01 T01611006  RH  032%=      5-min Rain = 0
KMNS 191550Z 19009KT 16/M01 A2997 RMK A01 T01621005  RH  032%=      5-min Rain = 0
KMNS 191555Z 19009KT 17/M00 A2997 RMK A01 T01671003  RH  032%=      5-min Rain = 0
KMNS 191600Z 19009KT 17/M00 A2997 RMK A01 T01721003  RH  031%=      5-min Rain = 0
KMNS 191605Z 19009KT 18/M00 A2997 RMK A01 T01761003  RH  030%=      5-min Rain = 0
KMNS 191610Z 19009KT 18/M00 A2997 RMK A01 T01781003  RH  030%=      5-min Rain = 0
KMNS 191615Z 19010KT 18/M00 A2997 RMK A01 T01841003  RH  029%=      5-min Rain = 0
KMNS 191620Z 19010KT 19/M01 A2997 RMK A01 T01911006  RH  027%=      5-min Rain = 0
KMNS 191625Z 19010KT 20/M01 A2996 RMK A01 T02001008  RH  025%=      5-min Rain = 0
KMNS 191630Z 18013KT 20/M02 A2996 RMK A01 T02021019  RH  023%=      5-min Rain = 0
KMNS 191635Z 18013KT 20/M02 A2996 RMK A01 T02031021  RH  022%=      5-min Rain = 0
KMNS 191640Z 18013KT 20/M02 A2996 RMK A01 T02041021  RH  022%=      5-min Rain = 0
KMNS 191645Z 18012KT 21/M02 A2996 RMK A01 T02091018  RH  022%=      5-min Rain = 0
KMNS 191650Z 18013KT 21/M02 A2996 RMK A01 T02121019  RH  021%=      5-min Rain = 0
KMNS 191655Z 19013KT 21/M03 A2996 RMK A01 T02141025  RH  020%=      5-min Rain = 0
KMNS 191700Z 19014KT 22/M03 A2996 RMK A01 T02161027  RH  019%=      5-min Rain = 0
KMNS 191705Z 19013KT 22/M03 A2995 RMK A01 T02171027  RH  019%=      5-min Rain = 0
KMNS 191710Z 20013G19KT 22/M03 A2995 RMK A01 T02211030  RH  019%=      5-min Rain = 0
KMNS 191715Z 20013KT 22/M03 A2995 RMK A01 T02221030  RH  018%=      5-min Rain = 0
KMNS 191720Z 20016KT 22/M03 A2995 RMK A01 T02211034  RH  018%=      5-min Rain = 0
KMNS 191725Z 19014G19KT 22/M03 A2995 RMK A01 T02221033  RH  018%=      5-min Rain = 0
KMNS 191730Z 19015KT 23/M03 A2995 RMK A01 T02261034  RH  018%=      5-min Rain = 0
KMNS 191735Z 20014KT 23/M03 A2995 RMK A01 T02271034  RH  017%=      5-min Rain = 0
KMNS 191740Z 20015G20KT 23/M03 A2994 RMK A01 T02251034  RH  017%=      5-min Rain = 0
KMNS 191745Z 20014G19KT 22/M03 A2994 RMK A01 T02231034  RH  018%=      5-min Rain = 0
KMNS 191750Z 20015KT 23/M03 A2994 RMK A01 T02291032  RH  017%=      5-min Rain = 0
KMNS 191755Z 20015KT 23/M04 A2994 RMK A01 T02301035  RH  017%=      5-min Rain = 0
KMNS 191800Z 20017KT 23/M04 A2993 RMK A01 T02301037  RH  017%=      5-min Rain = 0
KMNS 191805Z 20017G23KT 23/M04 A2993 RMK A01 T02311039  RH  016%=      5-min Rain = 0
KMNS 191810Z 19018G23KT 23/M04 A2993 RMK A01 T02341038  RH  016%=      5-min Rain = 0
KMNS 191815Z 19018KT 23/M04 A2992 RMK A01 T02331040  RH  016%=      5-min Rain = 0
KMNS 191820Z 19017G23KT 23/M04 A2992 RMK A01 T02311038  RH  016%=      5-min Rain = 0
KMNS 191825Z 19016KT 23/M04 A2992 RMK A01 T02311038  RH  016%=      5-min Rain = 0
KMNS 191830Z 19018G23KT 23/M04 A2992 RMK A01 T02321039  RH  016%=      5-min Rain = 0
KMNS 191835Z 19015G21KT 23/M04 A2991 RMK A01 T02281037  RH  017%=      5-min Rain = 0
KMNS 191840Z 20017G22KT 24/M04 A2991 RMK A01 T02361038  RH  016%=      5-min Rain = 0
KMNS 191845Z 20016G21KT 24/M04 A299 RMK A01 T02381040  RH  015%=      5-min Rain = 0
KMNS 191850Z 19018G24KT 24/M04 A299 RMK A01 T02431037  RH  015%=      5-min Rain = 0
KMNS 191855Z 20018G23KT 24/M04 A299 RMK A01 T02421038  RH  015%=      5-min Rain = 0
KMNS 191900Z 20016G23KT 25/M04 A2989 RMK A01 T02471041  RH  015%=      5-min Rain = 0
KMNS 191905Z 20018G23KT 24/M04 A2989 RMK A01 T02431042  RH  015%=      5-min Rain = 0
KMNS 191910Z 20017G22KT 25/M05 A2989 RMK A01 T02451045  RH  014%=      5-min Rain = 0
KMNS 191915Z 20017G23KT 25/M05 A2989 RMK A01 T02461045  RH  014%=      5-min Rain = 0
KMNS 191920Z 20016G21KT 24/M05 A2988 RMK A01 T02401046  RH  015%=      5-min Rain = 0
KMNS 191925Z 19015G22KT 25/M04 A2988 RMK A01 T02451044  RH  014%=      5-min Rain = 0
KMNS 191930Z 20016G21KT 24/M04 A2988 RMK A01 T02441043  RH  015%=      5-min Rain = 0
KMNS 191935Z 21014G19KT 24/M04 A2987 RMK A01 T02431043  RH  015%=      5-min Rain = 0
KMNS 191940Z 21015G20KT 24/M04 A2987 RMK A01 T02381042  RH  015%=      5-min Rain = 0
KMNS 191945Z 20015KT 24/M04 A2987 RMK A01 T02381041  RH  015%=      5-min Rain = 0
KMNS 191950Z 20013G18KT 24/M04 A2986 RMK A01 T02431041  RH  015%=      5-min Rain = 0
KMNS 191955Z 20014KT 25/M04 A2986 RMK A01 T02481041  RH  015%=      5-min Rain = 0
KMNS 192000Z 20013G21KT 25/M04 A2986 RMK A01 T02481041  RH  014%=      5-min Rain = 0
KMNS 192005Z 21012G17KT 26/M04 A2985 RMK A01 T02551042  RH  014%=      5-min Rain = 0
KMNS 192010Z 20014KT 26/M04 A2985 RMK A01 T02581044  RH  013%=      5-min Rain = 0
KMNS 192015Z 21013G19KT 26/M04 A2985 RMK A01 T02591044  RH  013%=      5-min Rain = 0
KMNS 192020Z 20015G20KT 26/M05 A2984 RMK A01 T02581045  RH  013%=      5-min Rain = 0
KMNS 192025Z 21013KT 26/M05 A2984 RMK A01 T02561046  RH  013%=      5-min Rain = 0
KMNS 192030Z 21013G18KT 26/M05 A2984 RMK A01 T02581045  RH  013%=      5-min Rain = 0
KMNS 192035Z 20014KT 25/M05 A2984 RMK A01 T02531046  RH  014%=      5-min Rain = 0
KMNS 192040Z 20013KT 26/M05 A2984 RMK A01 T02581046  RH  013%=      5-min Rain = 0
KMNS 192045Z 21014G19KT 25/M05 A2983 RMK A01 T02541049  RH  013%=      5-min Rain = 0
KMNS 192050Z 20015KT 25/M05 A2983 RMK A01 T02471051  RH  014%=      5-min Rain = 0
KMNS 192055Z 20014G19KT 24/M05 A2983 RMK A01 T02441049  RH  014%=      5-min Rain = 0
KMNS 192100Z 20013G18KT 25/M05 A2983 RMK A01 T02491048  RH  014%=      5-min Rain = 0
KMNS 192105Z 20012G18KT 25/M05 A2983 RMK A01 T02541048  RH  013%=      5-min Rain = 0
KMNS 192110Z 21013KT 26/M05 A2983 RMK A01 T02551050  RH  013%=      5-min Rain = 0
KMNS 192115Z 21013KT 26/M05 A2983 RMK A01 T02611050  RH  013%=      5-min Rain = 0
KMNS 192120Z 21012G17KT 26/M05 A2982 RMK A01 T02611051  RH  012%=      5-min Rain = 0
KMNS 192125Z 20015G21KT 26/M05 A2982 RMK A01 T02591052  RH  012%=      5-min Rain = 0
KMNS 192130Z 20012KT 26/M05 A2982 RMK A01 T02571052  RH  013%=      5-min Rain = 0
KMNS 192135Z 19013KT 26/M05 A2982 RMK A01 T02591052  RH  013%=      5-min Rain = 0
KMNS 192140Z 20015KT 26/M05 A2982 RMK A01 T02571054  RH  012%=      5-min Rain = 0
KMNS 192145Z 21013KT 26/M05 A2982 RMK A01 T02551051  RH  013%=      5-min Rain = 0
KMNS 192150Z 20012KT 26/M05 A2982 RMK A01 T02561050  RH  013%=      5-min Rain = 0
KMNS 192155Z 19013G19KT 26/M05 A2982 RMK A01 T02561052  RH  013%=      5-min Rain = 0
KMNS 192200Z 20014G19KT 25/M05 A2982 RMK A01 T02541054  RH  013%=      5-min Rain = 0
KMNS 192205Z 19013KT 25/M05 A2982 RMK A01 T02511052  RH  013%=      5-min Rain = 0
KMNS 192210Z 19011KT 24/M05 A2981 RMK A01 T02431053  RH  014%=      5-min Rain = 0
KMNS 192215Z 20012KT 24/M06 A2981 RMK A01 T02431057  RH  013%=      5-min Rain = 0
KMNS 192220Z 20011KT 24/M06 A2982 RMK A01 T02411058  RH  013%=      5-min Rain = 0
KMNS 192225Z 20011KT 24/M06 A2982 RMK A01 T02431057  RH  013%=      5-min Rain = 0
KMNS 192230Z 20011KT 24/M06 A2982 RMK A01 T02391057  RH  014%=      5-min Rain = 0
KMNS 192235Z 20010KT 24/M06 A2982 RMK A01 T02361055  RH  014%=      5-min Rain = 0
KMNS 192240Z 20009KT 24/M05 A2982 RMK A01 T02401054  RH  014%=      5-min Rain = 0
KMNS 192245Z 20009KT 24/M05 A2981 RMK A01 T02411052  RH  014%=      5-min Rain = 0
KMNS 192250Z 19009KT 24/M05 A2982 RMK A01 T02441047  RH  014%=      5-min Rain = 0
KMNS 192255Z 19012KT 24/M04 A2982 RMK A01 T02441042  RH  015%=      5-min Rain = 0
KMNS 192300Z 19011KT 24/M04 A2982 RMK A01 T02431041  RH  015%=      5-min Rain = 0
KMNS 192305Z 19011KT 24/M04 A2982 RMK A01 T02421040  RH  015%=      5-min Rain = 0
KMNS 192310Z 18012G17KT 24/M04 A2982 RMK A01 T02401040  RH  015%=      5-min Rain = 0
KMNS 192315Z 19012KT 23/M04 A2982 RMK A01 T02341038  RH  016%=      5-min Rain = 0
KMNS 192320Z 19009G14KT 23/M04 A2981 RMK A01 T02291037  RH  017%=      5-min Rain = 0
KMNS 192325Z 18009KT 22/M04 A2981 RMK A01 T02221035  RH  018%=      5-min Rain = 0
KMNS 192330Z 18009KT 22/M03 A2982 RMK A01 T02151033  RH  019%=      5-min Rain = 0
KMNS 192335Z 18010KT 21/M03 A2982 RMK A01 T02121034  RH  019%=      5-min Rain = 0
KMNS 192340Z 18009KT 21/M03 A2982 RMK A01 T02051033  RH  020%=      5-min Rain = 0
KMNS 192345Z 18009KT 20/M03 A2982 RMK A01 T02011033  RH  020%=      5-min Rain = 0
KMNS 192350Z 18010KT 20/M03 A2982 RMK A01 T01971033  RH  021%=      5-min Rain = 0
KMNS 192355Z 18010KT 20/M03 A2982 RMK A01 T01951033  RH  021%=      5-min Rain = 0
KMNS 200000Z 18010KT 19/M03 A2982 RMK A01 T01901032  RH  022%=      5-min Rain = 0
KMNS 200005Z 18010KT 19/M03 A2982 RMK A01 T01851032  RH  023%=      5-min Rain = 0
KMNS 200010Z 18009KT 18/M03 A2983 RMK A01 T01801031  RH  024%=      5-min Rain = 0
KMNS 200015Z 18008KT 17/M03 A2982 RMK A01 T01721030  RH  025%=      5-min Rain = 0
KMNS 200020Z 18008KT 17/M03 A2982 RMK A01 T01651030  RH  026%=      5-min Rain = 0
KMNS 200025Z 17007KT 16/M03 A2982 RMK A01 T01631029  RH  027%=      5-min Rain = 0
KMNS 200030Z 18007KT 16/M03 A2982 RMK A01 T01581029  RH  028%=      5-min Rain = 0
KMNS 200035Z 18008KT 16/M03 A2982 RMK A01 T01551028  RH  028%=      5-min Rain = 0
KMNS 200040Z 18007KT 15/M03 A2982 RMK A01 T01521028  RH  029%=      5-min Rain = 0
KMNS 200045Z 18008KT 16/M03 A2982 RMK A01 T01551027  RH  029%=      5-min Rain = 0
KMNS 200050Z 18008KT 15/M03 A2982 RMK A01 T01541027  RH  029%=      5-min Rain = 0
KMNS 200055Z 19010KT 15/M03 A2983 RMK A01 T01491027  RH  030%=      5-min Rain = 0
KMNS 200100Z 19010KT 15/M03 A2983 RMK A01 T01481026  RH  030%=      5-min Rain = 0
KMNS 200105Z 19010KT 15/M03 A2983 RMK A01 T01491026  RH  030%=      5-min Rain = 0
KMNS 200110Z 19010KT 15/M03 A2983 RMK A01 T01461025  RH  031%=      5-min Rain = 0
KMNS 200115Z 19010KT 15/M03 A2983 RMK A01 T01451025  RH  031%=      5-min Rain = 0
KMNS 200120Z 19009KT 14/M03 A2984 RMK A01 T01441025  RH  031%=      5-min Rain = 0
KMNS 200125Z 19009KT 14/M03 A2984 RMK A01 T01421025  RH  032%=      5-min Rain = 0
KMNS 200130Z 19009KT 14/M02 A2984 RMK A01 T01401024  RH  032%=      5-min Rain = 0
KMNS 200135Z 19008KT 14/M02 A2984 RMK A01 T01361024  RH  033%=      5-min Rain = 0
KMNS 200140Z 20007KT 13/M02 A2983 RMK A01 T01341024  RH  034%=      5-min Rain = 0
KMNS 200145Z 19007KT 13/M02 A2983 RMK A01 T01291024  RH  035%=      5-min Rain = 0
KMNS 200150Z 19008KT 13/M02 A2983 RMK A01 T01301022  RH  035%=      5-min Rain = 0
KMNS 200155Z 19008KT 13/M02 A2983 RMK A01 T01321021  RH  035%=      5-min Rain = 0
KMNS 200200Z 19008KT 13/M02 A2983 RMK A01 T01321021  RH  035%=      5-min Rain = 0
KMNS 200205Z 19007KT 13/M02 A2983 RMK A01 T01331021  RH  035%=      5-min Rain = 0
KMNS 200210Z 19008KT 13/M02 A2983 RMK A01 T01321020  RH  035%=      5-min Rain = 0
KMNS 200215Z 19008KT 13/M02 A2983 RMK A01 T01311019  RH  036%=      5-min Rain = 0
KMNS 200220Z 18008KT 13/M02 A2983 RMK A01 T01321018  RH  036%=      5-min Rain = 0
KMNS 200225Z 19008KT 13/M02 A2983 RMK A01 T01321017  RH  036%=      5-min Rain = 0
KMNS 200230Z 19008KT 13/M02 A2983 RMK A01 T01311017  RH  036%=      5-min Rain = 0
KMNS 200235Z 19008KT 13/M02 A2983 RMK A01 T01291017  RH  037%=      5-min Rain = 0
KMNS 200240Z 19007KT 13/M02 A2983 RMK A01 T01281017  RH  037%=      5-min Rain = 0
KMNS 200245Z 19007KT 13/M02 A2983 RMK A01 T01261017  RH  037%=      5-min Rain = 0
KMNS 200250Z 19008KT 12/M02 A2983 RMK A01 T01241017  RH  038%=      5-min Rain = 0
KMNS 200255Z 19007KT 12/M02 A2983 RMK A01 T01241017  RH  038%=      5-min Rain = 0
KMNS 200300Z 19008KT 12/M02 A2983 RMK A01 T01241017  RH  038%=      5-min Rain = 0
KMNS 200305Z 19007KT 12/M02 A2983 RMK A01 T01241016  RH  038%=      5-min Rain = 0
KMNS 200310Z 19008KT 12/M02 A2983 RMK A01 T01241016  RH  038%=      5-min Rain = 0
KMNS 200315Z 19008KT 13/M02 A2983 RMK A01 T01271015  RH  037%=      5-min Rain = 0
KMNS 200320Z 19008KT 13/M02 A2983 RMK A01 T01281015  RH  037%=      5-min Rain = 0
KMNS 200325Z 19008KT 13/M02 A2983 RMK A01 T01291015  RH  037%=      5-min Rain = 0
KMNS 200330Z 19008KT 13/M02 A2984 RMK A01 T01281015  RH  037%=      5-min Rain = 0
KMNS 200335Z 19008KT 13/M02 A2984 RMK A01 T01271015  RH  038%=      5-min Rain = 0
KMNS 200340Z 19008KT 13/M01 A2984 RMK A01 T01271014  RH  038%=      5-min Rain = 0
KMNS 200345Z 19008KT 13/M01 A2983 RMK A01 T01281014  RH  038%=      5-min Rain = 0
KMNS 200350Z 19008KT 13/M01 A2983 RMK A01 T01291014  RH  037%=      5-min Rain = 0
KMNS 200355Z 19008KT 13/M01 A2983 RMK A01 T01291014  RH  037%=      5-min Rain = 0
KMNS 200400Z 19008KT 13/M01 A2984 RMK A01 T01301014  RH  037%=      5-min Rain = 0
KMNS 200405Z 19007KT 13/M01 A2983 RMK A01 T01301014  RH  037%=      5-min Rain = 0
KMNS 200410Z 19007KT 13/M01 A2983 RMK A01 T01301014  RH  037%=      5-min Rain = 0
KMNS 200415Z 20008KT 13/M01 A2983 RMK A01 T01301013  RH  037%=      5-min Rain = 0
KMNS 200420Z 19008KT 13/M01 A2983 RMK A01 T01301013  RH  038%=      5-min Rain = 0
KMNS 200425Z 19009KT 13/M01 A2983 RMK A01 T01311013  RH  037%=      5-min Rain = 0
KMNS 200430Z 19008KT 14/M01 A2983 RMK A01 T01351013  RH  036%=      5-min Rain = 0
KMNS 200435Z 20008KT 14/M01 A2983 RMK A01 T01371013  RH  036%=      5-min Rain = 0
KMNS 200440Z 20008KT 14/M01 A2983 RMK A01 T01411014  RH  035%=      5-min Rain = 0
KMNS 200445Z 20009KT 15/M01 A2983 RMK A01 T01451014  RH  034%=      5-min Rain = 0
KMNS 200450Z 20008KT 15/M02 A2983 RMK A01 T01461015  RH  033%=      5-min Rain = 0
KMNS 200455Z 20008KT 15/M01 A2983 RMK A01 T01461014  RH  033%=      5-min Rain = 0
KMNS 200500Z 19007KT 14/M01 A2983 RMK A01 T01441014  RH  034%=      5-min Rain = 0
KMNS 200505Z 19008KT 14/M01 A2983 RMK A01 T01441014  RH  034%=      5-min Rain = 0
KMNS 200510Z 19009G14KT 15/M01 A2983 RMK A01 T01491014  RH  033%=      5-min Rain = 0
KMNS 200515Z 20013G20KT 16/M02 A2983 RMK A01 T01591015  RH  031%=      5-min Rain = 0
KMNS 200520Z 20014G19KT 17/M02 A2983 RMK A01 T01671016  RH  029%=      5-min Rain = 0
KMNS 200525Z 20014KT 17/M02 A2982 RMK A01 T01661016  RH  029%=      5-min Rain = 0
KMNS 200530Z 20013KT 16/M01 A2982 RMK A01 T01641014  RH  030%=      5-min Rain = 0
KMNS 200535Z 20013KT 16/M01 A2982 RMK A01 T01601013  RH  031%=      5-min Rain = 0
KMNS 200540Z 20012KT 16/M01 A2982 RMK A01 T01571012  RH  032%=      5-min Rain = 0
KMNS 200545Z 20011KT 15/M01 A2982 RMK A01 T01541011  RH  033%=      5-min Rain = 0
KMNS 200550Z 20012KT 15/M01 A2982 RMK A01 T01531009  RH  033%=      5-min Rain = 0
KMNS 200555Z 20012G17KT 15/M01 A2982 RMK A01 T01541008  RH  033%=      5-min Rain = 0

Page generated in 0.0092 seconds.